sensor_id;sensor_type;location;lat;lon;timestamp;pressure;altitude;pressure_sealevel;temperature;humidity
39105;BME280;46464;51.154;13.812;2022-09-11T00:00:58;99076.84;;;14.19;100.00
39105;BME280;46464;51.154;13.812;2022-09-11T00:03:25;99074.78;;;14.23;100.00
39105;BME280;46464;51.154;13.812;2022-09-11T00:05:53;99083.56;;;14.27;100.00
39105;BME280;46464;51.154;13.812;2022-09-11T00:08:20;99082.78;;;14.25;100.00
39105;BME280;46464;51.154;13.812;2022-09-11T00:10:47;99083.59;;;14.12;100.00
39105;BME280;46464;51.154;13.812;2022-09-11T00:13:17;99079.09;;;14.13;100.00
39105;BME280;46464;51.154;13.812;2022-09-11T00:15:49;99087.28;;;14.11;100.00
39105;BME280;46464;51.154;13.812;2022-09-11T00:18:19;99094.16;;;14.02;100.00
39105;BME280;46464;51.154;13.812;2022-09-11T00:20:53;99084.41;;;14.00;100.00
39105;BME280;46464;51.154;13.812;2022-09-11T00:23:22;99085.72;;;13.94;100.00
39105;BME280;46464;51.154;13.812;2022-09-11T00:25:49;99086.56;;;13.95;100.00
39105;BME280;46464;51.154;13.812;2022-09-11T00:28:17;99083.09;;;13.93;100.00
39105;BME280;46464;51.154;13.812;2022-09-11T00:30:46;99083.97;;;13.93;100.00
39105;BME280;46464;51.154;13.812;2022-09-11T00:33:14;99085.78;;;13.93;100.00
39105;BME280;46464;51.154;13.812;2022-09-11T00:35:41;99081.28;;;13.93;100.00
39105;BME280;46464;51.154;13.812;2022-09-11T00:38:07;99083.41;;;13.88;100.00
39105;BME280;46464;51.154;13.812;2022-09-11T00:40:46;99065.47;;;13.87;100.00
39105;BME280;46464;51.154;13.812;2022-09-11T00:43:14;99080.72;;;13.88;100.00
39105;BME280;46464;51.154;13.812;2022-09-11T00:45:45;99077.63;;;13.94;100.00
39105;BME280;46464;51.154;13.812;2022-09-11T00:48:18;99073.19;;;13.93;100.00
39105;BME280;46464;51.154;13.812;2022-09-11T00:50:48;99075.00;;;13.93;100.00
39105;BME280;46464;51.154;13.812;2022-09-11T00:53:16;99075.75;;;13.95;100.00
39105;BME280;46464;51.154;13.812;2022-09-11T00:55:50;99079.91;;;14.00;100.00
39105;BME280;46464;51.154;13.812;2022-09-11T00:58:22;99069.50;;;13.94;100.00
39105;BME280;46464;51.154;13.812;2022-09-11T01:00:51;99071.31;;;13.94;100.00
39105;BME280;46464;51.154;13.812;2022-09-11T01:03:19;99071.13;;;13.97;100.00
39105;BME280;46464;51.154;13.812;2022-09-11T01:05:46;99073.84;;;13.97;100.00
39105;BME280;46464;51.154;13.812;2022-09-11T01:08:13;99064.97;;;13.95;100.00
39105;BME280;46464;51.154;13.812;2022-09-11T01:13:36;99065.53;;;14.00;100.00
39105;BME280;46464;51.154;13.812;2022-09-11T01:35:16;99076.69;;;13.66;100.00
39105;BME280;46464;51.154;13.812;2022-09-11T01:38:10;99077.78;;;13.64;100.00
39105;BME280;46464;51.154;13.812;2022-09-11T01:40:53;99084.25;;;13.61;100.00
39105;BME280;46464;51.154;13.812;2022-09-11T01:43:23;99075.19;;;13.48;100.00
39105;BME280;46464;51.154;13.812;2022-09-11T01:45:53;99077.31;;;13.43;100.00
39105;BME280;46464;51.154;13.812;2022-09-11T01:48:24;99086.44;;;13.26;100.00
39105;BME280;46464;51.154;13.812;2022-09-11T01:50:53;99075.69;;;13.11;100.00
39105;BME280;46464;51.154;13.812;2022-09-11T01:53:25;99084.16;;;13.05;100.00
39105;BME280;46464;51.154;13.812;2022-09-11T01:55:58;99087.91;;;13.02;100.00
39105;BME280;46464;51.154;13.812;2022-09-11T01:58:30;99083.53;;;13.00;100.00
39105;BME280;46464;51.154;13.812;2022-09-11T02:01:10;99078.16;;;13.00;100.00
39105;BME280;46464;51.154;13.812;2022-09-11T02:03:45;99080.94;;;12.98;100.00
39105;BME280;46464;51.154;13.812;2022-09-11T02:06:17;99079.22;;;12.97;100.00
39105;BME280;46464;51.154;13.812;2022-09-11T02:08:52;99089.13;;;12.97;100.00
39105;BME280;46464;51.154;13.812;2022-09-11T02:11:23;99079.41;;;12.94;100.00
39105;BME280;46464;51.154;13.812;2022-09-11T02:19:24;99080.28;;;12.95;100.00
39105;BME280;46464;51.154;13.812;2022-09-11T02:21:52;99085.75;;;12.93;100.00
39105;BME280;46464;51.154;13.812;2022-09-11T02:24:20;99079.53;;;12.93;100.00
39105;BME280;46464;51.154;13.812;2022-09-11T02:26:54;99084.81;;;12.94;100.00
39105;BME280;46464;51.154;13.812;2022-09-11T02:29:23;99075.09;;;12.91;100.00
39105;BME280;46464;51.154;13.812;2022-09-11T02:31:49;99084.91;;;12.93;100.00
39105;BME280;46464;51.154;13.812;2022-09-11T02:34:23;99083.34;;;12.88;100.00
39105;BME280;46464;51.154;13.812;2022-09-11T02:48:29;99088.44;;;12.79;100.00
39105;BME280;46464;51.154;13.812;2022-09-11T02:56:49;99080.81;;;12.71;100.00
39105;BME280;46464;51.154;13.812;2022-09-11T03:01:52;99083.03;;;12.64;100.00
39105;BME280;46464;51.154;13.812;2022-09-11T03:04:22;99081.56;;;12.58;100.00
39105;BME280;46464;51.154;13.812;2022-09-11T03:06:51;99081.84;;;12.54;100.00
39105;BME280;46464;51.154;13.812;2022-09-11T03:09:18;99083.88;;;12.50;100.00
39105;BME280;46464;51.154;13.812;2022-09-11T03:11:45;99084.13;;;12.46;100.00
39105;BME280;46464;51.154;13.812;2022-09-11T03:14:12;99082.75;;;12.38;100.00
39105;BME280;46464;51.154;13.812;2022-09-11T03:16:39;99081.97;;;12.36;100.00
39105;BME280;46464;51.154;13.812;2022-09-11T03:19:07;99086.69;;;12.33;100.00
39105;BME280;46464;51.154;13.812;2022-09-11T03:21:34;99081.38;;;12.31;100.00
39105;BME280;46464;51.154;13.812;2022-09-11T03:24:00;99081.50;;;12.30;100.00
39105;BME280;46464;51.154;13.812;2022-09-11T03:26:27;99079.06;;;12.25;100.00
39105;BME280;46464;51.154;13.812;2022-09-11T03:28:54;99088.97;;;12.24;100.00
39105;BME280;46464;51.154;13.812;2022-09-11T03:31:21;99093.56;;;12.22;100.00
39105;BME280;46464;51.154;13.812;2022-09-11T03:33:47;99094.63;;;12.20;100.00
39105;BME280;46464;51.154;13.812;2022-09-11T03:36:15;99100.97;;;12.19;100.00
39105;BME280;46464;51.154;13.812;2022-09-11T03:38:41;99093.94;;;12.16;100.00
39105;BME280;46464;51.154;13.812;2022-09-11T03:41:11;99096.72;;;12.15;100.00
39105;BME280;46464;51.154;13.812;2022-09-11T03:43:37;99100.38;;;12.14;100.00
39105;BME280;46464;51.154;13.812;2022-09-11T03:46:04;99099.56;;;12.11;100.00
39105;BME280;46464;51.154;13.812;2022-09-11T03:48:31;99106.69;;;12.13;100.00
39105;BME280;46464;51.154;13.812;2022-09-11T03:50:58;99106.00;;;12.09;100.00
39105;BME280;46464;51.154;13.812;2022-09-11T03:53:25;99112.34;;;12.08;100.00
39105;BME280;46464;51.154;13.812;2022-09-11T03:55:52;99109.84;;;12.05;100.00
39105;BME280;46464;51.154;13.812;2022-09-11T03:58:20;99108.28;;;12.01;100.00
39105;BME280;46464;51.154;13.812;2022-09-11T04:00:46;99113.75;;;11.99;100.00
39105;BME280;46464;51.154;13.812;2022-09-11T04:03:13;99111.25;;;11.96;100.00
39105;BME280;46464;51.154;13.812;2022-09-11T04:05:57;99122.06;;;11.94;100.00
39105;BME280;46464;51.154;13.812;2022-09-11T04:08:24;99112.31;;;11.92;100.00
39105;BME280;46464;51.154;13.812;2022-09-11T04:10:58;99116.94;;;11.90;100.00
39105;BME280;46464;51.154;13.812;2022-09-11T04:13:36;99114.34;;;11.88;100.00
39105;BME280;46464;51.154;13.812;2022-09-11T04:16:06;99118.09;;;11.86;100.00
39105;BME280;46464;51.154;13.812;2022-09-11T04:18:35;99120.78;;;11.86;100.00
39105;BME280;46464;51.154;13.812;2022-09-11T04:21:04;99126.91;;;11.88;100.00
39105;BME280;46464;51.154;13.812;2022-09-11T04:23:31;99117.91;;;11.89;100.00
39105;BME280;46464;51.154;13.812;2022-09-11T04:25:57;99125.03;;;11.90;100.00
39105;BME280;46464;51.154;13.812;2022-09-11T04:28:26;99120.41;;;11.92;100.00
39105;BME280;46464;51.154;13.812;2022-09-11T04:30:54;99119.44;;;11.93;100.00
39105;BME280;46464;51.154;13.812;2022-09-11T04:33:22;99123.88;;;11.94;100.00
39105;BME280;46464;51.154;13.812;2022-09-11T04:35:49;99133.78;;;11.93;100.00
39105;BME280;46464;51.154;13.812;2022-09-11T04:38:16;99125.06;;;12.06;100.00
39105;BME280;46464;51.154;13.812;2022-09-11T04:40:44;99129.03;;;12.15;100.00
39105;BME280;46464;51.154;13.812;2022-09-11T04:43:10;99133.72;;;12.11;100.00
39105;BME280;46464;51.154;13.812;2022-09-11T04:45:37;99125.81;;;12.08;100.00
39105;BME280;46464;51.154;13.812;2022-09-11T04:48:06;99124.84;;;12.09;100.00
39105;BME280;46464;51.154;13.812;2022-09-11T04:50:32;99125.03;;;12.22;100.00
39105;BME280;46464;51.154;13.812;2022-09-11T04:52:58;99126.47;;;12.27;100.00
39105;BME280;46464;51.154;13.812;2022-09-11T04:55:25;99133.72;;;12.27;100.00
39105;BME280;46464;51.154;13.812;2022-09-11T04:57:52;99125.53;;;12.29;100.00
39105;BME280;46464;51.154;13.812;2022-09-11T05:00:19;99132.47;;;12.33;100.00
39105;BME280;46464;51.154;13.812;2022-09-11T05:02:45;99134.09;;;12.35;100.00
39105;BME280;46464;51.154;13.812;2022-09-11T05:05:13;99134.28;;;12.48;100.00
39105;BME280;46464;51.154;13.812;2022-09-11T05:07:39;99139.75;;;12.47;100.00
39105;BME280;46464;51.154;13.812;2022-09-11T05:10:06;99135.44;;;12.44;100.00
39105;BME280;46464;51.154;13.812;2022-09-11T05:12:33;99144.16;;;12.48;100.00
39105;BME280;46464;51.154;13.812;2022-09-11T05:15:00;99144.00;;;12.51;100.00
39105;BME280;46464;51.154;13.812;2022-09-11T05:17:26;99141.72;;;12.59;100.00
39105;BME280;46464;51.154;13.812;2022-09-11T05:19:53;99142.31;;;12.64;100.00
39105;BME280;46464;51.154;13.812;2022-09-11T05:22:19;99147.25;;;12.72;100.00
39105;BME280;46464;51.154;13.812;2022-09-11T05:24:45;99150.25;;;12.82;100.00
39105;BME280;46464;51.154;13.812;2022-09-11T05:27:12;99150.25;;;12.82;100.00
39105;BME280;46464;51.154;13.812;2022-09-11T05:29:39;99153.75;;;12.84;100.00
39105;BME280;46464;51.154;13.812;2022-09-11T05:32:07;99157.78;;;12.91;100.00
39105;BME280;46464;51.154;13.812;2022-09-11T05:34:33;99166.75;;;12.91;100.00
39105;BME280;46464;51.154;13.812;2022-09-11T05:37:00;99164.44;;;13.00;100.00
39105;BME280;46464;51.154;13.812;2022-09-11T05:39:28;99166.00;;;13.04;100.00
39105;BME280;46464;51.154;13.812;2022-09-11T05:41:54;99173.53;;;13.13;100.00
39105;BME280;46464;51.154;13.812;2022-09-11T05:44:21;99180.38;;;13.19;100.00
39105;BME280;46464;51.154;13.812;2022-09-11T05:46:47;99181.75;;;13.26;100.00
39105;BME280;46464;51.154;13.812;2022-09-11T05:49:14;99182.81;;;13.23;100.00
39105;BME280;46464;51.154;13.812;2022-09-11T05:51:41;99186.66;;;13.34;100.00
39105;BME280;46464;51.154;13.812;2022-09-11T05:54:07;99197.56;;;13.32;100.00
39105;BME280;46464;51.154;13.812;2022-09-11T05:56:35;99187.81;;;13.30;100.00
39105;BME280;46464;51.154;13.812;2022-09-11T05:59:02;99198.25;;;13.36;100.00
39105;BME280;46464;51.154;13.812;2022-09-11T06:01:28;99192.91;;;13.34;100.00
39105;BME280;46464;51.154;13.812;2022-09-11T06:03:56;99202.28;;;13.43;100.00
39105;BME280;46464;51.154;13.812;2022-09-11T06:06:23;99202.13;;;13.46;100.00
39105;BME280;46464;51.154;13.812;2022-09-11T06:08:50;99204.81;;;13.46;100.00
39105;BME280;46464;51.154;13.812;2022-09-11T06:11:19;99213.00;;;13.59;100.00
39105;BME280;46464;51.154;13.812;2022-09-11T06:13:47;99208.41;;;13.61;100.00
39105;BME280;46464;51.154;13.812;2022-09-11T06:16:21;99212.63;;;13.65;100.00
39105;BME280;46464;51.154;13.812;2022-09-11T06:18:50;99214.75;;;13.75;100.00
39105;BME280;46464;51.154;13.812;2022-09-11T06:21:19;99219.00;;;13.79;100.00
39105;BME280;46464;51.154;13.812;2022-09-11T06:23:47;99211.84;;;13.78;100.00
39105;BME280;46464;51.154;13.812;2022-09-11T06:26:17;99221.69;;;13.79;100.00
39105;BME280;46464;51.154;13.812;2022-09-11T06:28:44;99220.53;;;13.83;100.00
39105;BME280;46464;51.154;13.812;2022-09-11T06:31:15;99223.84;;;13.88;100.00
39105;BME280;46464;51.154;13.812;2022-09-11T06:33:43;99226.22;;;13.93;100.00
39105;BME280;46464;51.154;13.812;2022-09-11T06:36:12;99220.75;;;13.94;100.00
39105;BME280;46464;51.154;13.812;2022-09-11T06:38:39;99230.66;;;13.94;100.00
39105;BME280;46464;51.154;13.812;2022-09-11T06:41:07;99228.53;;;13.99;100.00
39105;BME280;46464;51.154;13.812;2022-09-11T06:43:38;99235.56;;;14.01;100.00
39105;BME280;46464;51.154;13.812;2022-09-11T06:46:10;99228.13;;;14.05;100.00
39105;BME280;46464;51.154;13.812;2022-09-11T06:48:39;99230.75;;;14.07;100.00
39105;BME280;46464;51.154;13.812;2022-09-11T06:51:08;99242.81;;;14.01;100.00
39105;BME280;46464;51.154;13.812;2022-09-11T06:53:37;99236.56;;;14.00;100.00
39105;BME280;46464;51.154;13.812;2022-09-11T06:56:05;99236.44;;;14.02;100.00
39105;BME280;46464;51.154;13.812;2022-09-11T07:01:13;99243.56;;;14.17;100.00
39105;BME280;46464;51.154;13.812;2022-09-11T07:03:41;99240.16;;;14.28;100.00
39105;BME280;46464;51.154;13.812;2022-09-11T07:06:11;99242.38;;;14.36;100.00
39105;BME280;46464;51.154;13.812;2022-09-11T07:08:38;99249.31;;;14.40;100.00
39105;BME280;46464;51.154;13.812;2022-09-11T07:11:05;99245.00;;;14.38;100.00
39105;BME280;46464;51.154;13.812;2022-09-11T07:13:33;99239.19;;;14.44;100.00
39105;BME280;46464;51.154;13.812;2022-09-11T07:16:05;99246.88;;;14.50;100.00
39105;BME280;46464;51.154;13.812;2022-09-11T07:18:37;99251.13;;;14.54;100.00
39105;BME280;46464;51.154;13.812;2022-09-11T07:21:12;99251.13;;;14.54;100.00
39105;BME280;46464;51.154;13.812;2022-09-11T07:23:39;99251.78;;;14.58;100.00
39105;BME280;46464;51.154;13.812;2022-09-11T07:26:09;99247.78;;;14.63;100.00
39105;BME280;46464;51.154;13.812;2022-09-11T07:28:38;99255.56;;;14.55;100.00
39105;BME280;46464;51.154;13.812;2022-09-11T07:31:13;99248.59;;;14.51;100.00
39105;BME280;46464;51.154;13.812;2022-09-11T07:33:47;99252.19;;;14.51;100.00
39105;BME280;46464;51.154;13.812;2022-09-11T07:36:18;99253.03;;;14.52;100.00
39105;BME280;46464;51.154;13.812;2022-09-11T07:38:46;99254.91;;;14.37;100.00
39105;BME280;46464;51.154;13.812;2022-09-11T07:41:15;99248.91;;;14.46;100.00
39105;BME280;46464;51.154;13.812;2022-09-11T07:43:42;99250.75;;;14.46;100.00
39105;BME280;46464;51.154;13.812;2022-09-11T07:46:12;99251.31;;;14.51;100.00
39105;BME280;46464;51.154;13.812;2022-09-11T07:48:40;99256.81;;;14.49;100.00
39105;BME280;46464;51.154;13.812;2022-09-11T07:51:10;99261.94;;;14.54;100.00
39105;BME280;46464;51.154;13.812;2022-09-11T07:53:45;99254.78;;;14.53;100.00
39105;BME280;46464;51.154;13.812;2022-09-11T07:56:19;99263.41;;;14.45;100.00
39105;BME280;46464;51.154;13.812;2022-09-11T07:58:46;99260.88;;;14.42;100.00
39105;BME280;46464;51.154;13.812;2022-09-11T08:01:15;99268.53;;;14.35;100.00
39105;BME280;46464;51.154;13.812;2022-09-11T08:03:43;99273.44;;;14.43;100.00
39105;BME280;46464;51.154;13.812;2022-09-11T08:06:15;99269.78;;;14.44;100.00
39105;BME280;46464;51.154;13.812;2022-09-11T08:08:51;99271.63;;;14.44;100.00
39105;BME280;46464;51.154;13.812;2022-09-11T08:11:18;99270.34;;;14.49;100.00
39105;BME280;46464;51.154;13.812;2022-09-11T08:13:46;99285.03;;;14.45;100.00
39105;BME280;46464;51.154;13.812;2022-09-11T08:16:17;99287.63;;;14.47;100.00
39105;BME280;46464;51.154;13.812;2022-09-11T08:18:44;99286.38;;;14.38;100.00
39105;BME280;46464;51.154;13.812;2022-09-11T08:21:11;99292.16;;;14.46;100.00
39105;BME280;46464;51.154;13.812;2022-09-11T08:23:40;99295.53;;;14.50;100.00
39105;BME280;46464;51.154;13.812;2022-09-11T08:26:09;99309.75;;;14.39;100.00
39105;BME280;46464;51.154;13.812;2022-09-11T08:28:37;99303.94;;;14.45;100.00
39105;BME280;46464;51.154;13.812;2022-09-11T08:31:05;99312.72;;;14.49;100.00
39105;BME280;46464;51.154;13.812;2022-09-11T08:33:32;99312.50;;;14.52;100.00
39105;BME280;46464;51.154;13.812;2022-09-11T08:35:58;99323.53;;;14.49;100.00
39105;BME280;46464;51.154;13.812;2022-09-11T08:38:26;99321.91;;;14.46;100.00
39105;BME280;46464;51.154;13.812;2022-09-11T08:40:52;99317.47;;;14.45;100.00
39105;BME280;46464;51.154;13.812;2022-09-11T08:43:27;99319.28;;;14.45;100.00
39105;BME280;46464;51.154;13.812;2022-09-11T08:45:58;99327.19;;;14.48;100.00
39105;BME280;46464;51.154;13.812;2022-09-11T08:48:31;99320.25;;;14.44;100.00
39105;BME280;46464;51.154;13.812;2022-09-11T08:51:00;99325.16;;;14.51;100.00
39105;BME280;46464;51.154;13.812;2022-09-11T08:53:29;99322.66;;;14.48;100.00
39105;BME280;46464;51.154;13.812;2022-09-11T08:56:08;99329.28;;;14.57;100.00
39105;BME280;46464;51.154;13.812;2022-09-11T09:04:38;99329.13;;;14.60;100.00
39105;BME280;46464;51.154;13.812;2022-09-11T09:07:27;99328.91;;;14.63;100.00
39105;BME280;46464;51.154;13.812;2022-09-11T09:10:00;99335.13;;;14.65;100.00
39105;BME280;46464;51.154;13.812;2022-09-11T09:12:40;99335.69;;;14.71;100.00
39105;BME280;46464;51.154;13.812;2022-09-11T09:15:22;99340.59;;;14.78;100.00
39105;BME280;46464;51.154;13.812;2022-09-11T09:17:58;99339.91;;;14.75;100.00
39105;BME280;46464;51.154;13.812;2022-09-11T09:20:33;99336.16;;;14.77;100.00
39105;BME280;46464;51.154;13.812;2022-09-11T09:23:20;99345.13;;;14.78;100.00
39105;BME280;46464;51.154;13.812;2022-09-11T09:25:49;99346.31;;;14.74;100.00
39105;BME280;46464;51.154;13.812;2022-09-11T09:28:20;99349.03;;;14.74;100.00
39105;BME280;46464;51.154;13.812;2022-09-11T09:30:56;99352.28;;;14.64;100.00
39105;BME280;46464;51.154;13.812;2022-09-11T09:33:27;99356.34;;;14.72;100.00
39105;BME280;46464;51.154;13.812;2022-09-11T09:36:01;99353.75;;;14.70;100.00
39105;BME280;46464;51.154;13.812;2022-09-11T09:38:37;99361.88;;;14.70;100.00
39105;BME280;46464;51.154;13.812;2022-09-11T09:44:43;99361.66;;;14.59;100.00
39105;BME280;46464;51.154;13.812;2022-09-11T09:47:20;99364.25;;;14.60;100.00
39105;BME280;46464;51.154;13.812;2022-09-11T09:49:48;99364.38;;;14.59;100.00
39105;BME280;46464;51.154;13.812;2022-09-11T09:52:23;99367.75;;;14.48;100.00
39105;BME280;46464;51.154;13.812;2022-09-11T09:54:59;99362.16;;;14.36;100.00
39105;BME280;46464;51.154;13.812;2022-09-11T09:57:33;99378.44;;;14.35;100.00
39105;BME280;46464;51.154;13.812;2022-09-11T10:05:17;99375.56;;;14.38;100.00
39105;BME280;46464;51.154;13.812;2022-09-11T10:07:56;99380.41;;;14.33;100.00
39105;BME280;46464;51.154;13.812;2022-09-11T10:10:30;99388.00;;;14.26;100.00
39105;BME280;46464;51.154;13.812;2022-09-11T10:13:01;99391.69;;;14.25;100.00
39105;BME280;46464;51.154;13.812;2022-09-11T10:15:47;99389.84;;;14.26;100.00
39105;BME280;46464;51.154;13.812;2022-09-11T10:18:21;99396.22;;;14.25;100.00
39105;BME280;46464;51.154;13.812;2022-09-11T10:20:48;99398.06;;;14.24;100.00
39105;BME280;46464;51.154;13.812;2022-09-11T10:23:25;99405.09;;;14.27;100.00
39105;BME280;46464;51.154;13.812;2022-09-11T10:25:52;99403.34;;;14.26;100.00
39105;BME280;46464;51.154;13.812;2022-09-11T10:28:28;99407.59;;;14.30;100.00
39105;BME280;46464;51.154;13.812;2022-09-11T10:30:59;99409.34;;;14.31;100.00
39105;BME280;46464;51.154;13.812;2022-09-11T10:33:33;99410.13;;;14.33;100.00
39105;BME280;46464;51.154;13.812;2022-09-11T10:36:04;99412.94;;;14.31;100.00
39105;BME280;46464;51.154;13.812;2022-09-11T10:38:45;99409.75;;;14.39;100.00
39105;BME280;46464;51.154;13.812;2022-09-11T10:43:45;99414.47;;;14.50;100.00
39105;BME280;46464;51.154;13.812;2022-09-11T10:49:06;99426.53;;;14.59;100.00
39105;BME280;46464;51.154;13.812;2022-09-11T10:51:36;99428.38;;;14.44;100.00
39105;BME280;46464;51.154;13.812;2022-09-11T10:59:25;99435.69;;;14.27;100.00
39105;BME280;46464;51.154;13.812;2022-09-11T11:01:55;99436.06;;;14.21;100.00
39105;BME280;46464;51.154;13.812;2022-09-11T11:04:22;99441.47;;;14.21;100.00
39105;BME280;46464;51.154;13.812;2022-09-11T11:07:07;99445.59;;;14.12;100.00
39105;BME280;46464;51.154;13.812;2022-09-11T11:12:40;99450.72;;;14.17;100.00
39105;BME280;46464;51.154;13.812;2022-09-11T11:20:55;99461.13;;;14.09;100.00
39105;BME280;46464;51.154;13.812;2022-09-11T11:23:41;99458.41;;;14.09;100.00
39105;BME280;46464;51.154;13.812;2022-09-11T11:26:29;99461.81;;;14.12;100.00
39105;BME280;46464;51.154;13.812;2022-09-11T11:35:33;99463.72;;;14.10;100.00
39105;BME280;46464;51.154;13.812;2022-09-11T11:38:22;99470.97;;;14.10;100.00
39105;BME280;46464;51.154;13.812;2022-09-11T11:40:53;99469.63;;;14.17;100.00
39105;BME280;46464;51.154;13.812;2022-09-11T11:43:27;99471.19;;;14.21;100.00
39105;BME280;46464;51.154;13.812;2022-09-11T11:46:26;99484.53;;;14.24;100.00
39105;BME280;46464;51.154;13.812;2022-09-11T11:49:01;99479.50;;;14.32;100.00
39105;BME280;46464;51.154;13.812;2022-09-11T11:51:43;99482.88;;;14.36;100.00
39105;BME280;46464;51.154;13.812;2022-09-11T11:54:18;99487.22;;;14.39;100.00
39105;BME280;46464;51.154;13.812;2022-09-11T11:56:58;99483.19;;;14.46;100.00
39105;BME280;46464;51.154;13.812;2022-09-11T11:59:34;99474.91;;;14.49;100.00
39105;BME280;46464;51.154;13.812;2022-09-11T12:04:57;99481.97;;;14.51;100.00
39105;BME280;46464;51.154;13.812;2022-09-11T12:07:32;99486.09;;;14.57;100.00
39105;BME280;46464;51.154;13.812;2022-09-11T12:10:01;99472.28;;;14.62;100.00
39105;BME280;46464;51.154;13.812;2022-09-11T12:12:30;99474.75;;;14.66;100.00
39105;BME280;46464;51.154;13.812;2022-09-11T12:15:16;99479.56;;;14.76;100.00
39105;BME280;46464;51.154;13.812;2022-09-11T12:17:44;99483.72;;;14.81;100.00
39105;BME280;46464;51.154;13.812;2022-09-11T12:20:28;99478.22;;;14.83;100.00
39105;BME280;46464;51.154;13.812;2022-09-11T12:22:55;99486.72;;;14.91;100.00
39105;BME280;46464;51.154;13.812;2022-09-11T12:27:50;99484.66;;;15.09;100.00
39105;BME280;46464;51.154;13.812;2022-09-11T12:30:24;99483.59;;;15.12;100.00
39105;BME280;46464;51.154;13.812;2022-09-11T12:32:52;99479.53;;;15.19;100.00
39105;BME280;46464;51.154;13.812;2022-09-11T12:35:32;99479.91;;;15.27;100.00
39105;BME280;46464;51.154;13.812;2022-09-11T12:45:55;99478.34;;;15.92;100.00
39105;BME280;46464;51.154;13.812;2022-09-11T12:48:31;99482.63;;;15.96;100.00
39105;BME280;46464;51.154;13.812;2022-09-11T12:50:59;99474.72;;;16.06;100.00
39105;BME280;46464;51.154;13.812;2022-09-11T12:53:31;99461.06;;;16.08;100.00
39105;BME280;46464;51.154;13.812;2022-09-11T12:56:05;99468.22;;;16.09;100.00
39105;BME280;46464;51.154;13.812;2022-09-11T12:58:39;99467.25;;;16.23;100.00
39105;BME280;46464;51.154;13.812;2022-09-11T13:03:37;99460.00;;;16.36;98.71
39105;BME280;46464;51.154;13.812;2022-09-11T13:06:09;99459.03;;;16.50;99.36
39105;BME280;46464;51.154;13.812;2022-09-11T13:08:45;99464.78;;;16.58;96.41
39105;BME280;46464;51.154;13.812;2022-09-11T13:16:55;99460.66;;;16.78;96.20
39105;BME280;46464;51.154;13.812;2022-09-11T13:19:22;99458.47;;;17.09;94.65
39105;BME280;46464;51.154;13.812;2022-09-11T13:21:50;99459.91;;;17.26;92.96
39105;BME280;46464;51.154;13.812;2022-09-11T13:24:24;99463.19;;;17.32;93.51
39105;BME280;46464;51.154;13.812;2022-09-11T13:26:52;99461.81;;;17.13;91.75
39105;BME280;46464;51.154;13.812;2022-09-11T13:29:30;99457.38;;;17.12;92.91
39105;BME280;46464;51.154;13.812;2022-09-11T13:31:59;99447.56;;;17.22;93.31
39105;BME280;46464;51.154;13.812;2022-09-11T13:34:30;99443.53;;;17.28;92.26
39105;BME280;46464;51.154;13.812;2022-09-11T13:37:10;99445.72;;;17.47;92.18
39105;BME280;46464;51.154;13.812;2022-09-11T13:39:41;99444.97;;;17.45;90.33
39105;BME280;46464;51.154;13.812;2022-09-11T13:42:13;99435.91;;;17.57;92.62
39105;BME280;46464;51.154;13.812;2022-09-11T13:44:43;99437.81;;;17.68;90.16
39105;BME280;46464;51.154;13.812;2022-09-11T13:47:21;99448.88;;;17.54;88.62
39105;BME280;46464;51.154;13.812;2022-09-11T13:49:49;99447.00;;;17.54;88.81
39105;BME280;46464;51.154;13.812;2022-09-11T13:52:19;99443.25;;;17.68;89.93
39105;BME280;46464;51.154;13.812;2022-09-11T13:54:52;99444.97;;;17.94;90.14
39105;BME280;46464;51.154;13.812;2022-09-11T13:57:21;99443.59;;;18.12;86.66
39105;BME280;46464;51.154;13.812;2022-09-11T14:04:44;99430.81;;;18.48;84.63
39105;BME280;46464;51.154;13.812;2022-09-11T14:07:21;99435.75;;;18.66;81.69
39105;BME280;46464;51.154;13.812;2022-09-11T14:10:06;99428.09;;;18.71;81.12
39105;BME280;46464;51.154;13.812;2022-09-11T14:12:34;99423.63;;;18.59;82.43
39105;BME280;46464;51.154;13.812;2022-09-11T14:15:21;99424.75;;;18.67;83.20
39105;BME280;46464;51.154;13.812;2022-09-11T14:17:49;99417.44;;;18.79;82.75
39105;BME280;46464;51.154;13.812;2022-09-11T14:20:18;99419.66;;;18.63;80.74
39105;BME280;46464;51.154;13.812;2022-09-11T14:22:52;99415.59;;;18.68;80.43
39105;BME280;46464;51.154;13.812;2022-09-11T14:25:21;99414.47;;;18.71;80.40
39105;BME280;46464;51.154;13.812;2022-09-11T14:27:49;99418.06;;;18.71;80.89
39105;BME280;46464;51.154;13.812;2022-09-11T14:33:20;99416.84;;;18.76;80.06
39105;BME280;46464;51.154;13.812;2022-09-11T14:35:48;99415.59;;;18.91;82.15
39105;BME280;46464;51.154;13.812;2022-09-11T14:38:18;99410.91;;;18.82;78.06
39105;BME280;46464;51.154;13.812;2022-09-11T14:40:55;99413.34;;;18.85;80.04
39105;BME280;46464;51.154;13.812;2022-09-11T14:43:25;99413.47;;;18.83;80.06
39105;BME280;46464;51.154;13.812;2022-09-11T14:45:56;99416.97;;;18.85;78.29
39105;BME280;46464;51.154;13.812;2022-09-11T14:48:27;99416.22;;;18.72;77.79
39105;BME280;46464;51.154;13.812;2022-09-11T14:50:54;99412.25;;;18.65;78.98
39105;BME280;46464;51.154;13.812;2022-09-11T14:53:25;99404.22;;;18.75;78.64
39105;BME280;46464;51.154;13.812;2022-09-11T14:55:54;99406.56;;;18.79;81.38
39105;BME280;46464;51.154;13.812;2022-09-11T14:58:23;99407.69;;;18.88;78.28